Time;durP1;ratioP1;P1;durP2;ratioP2;P2;SDS_P1;SDS_P2;PMS_P1;PMS_P2;Temp;Humidity;BMP_temperature;BMP_pressure;BME280_temperature;BME280_humidity;BME280_pressure;Samples;Min_cycle;Max_cycle;Signal;HPM_P1;HPM_P2
2022/06/30 00:00:47;;;;;;;0.28;0.28;;;16.00;99.90;;;;;;4850775;29;20081;-83
2022/06/30 00:03:13;;;;;;;0.65;0.50;;;16.00;99.90;;;;;;4866825;29;20052;-83
2022/06/30 00:05:39;;;;;;;0.35;0.35;;;15.90;99.90;;;;;;4880242;29;20045;-83
2022/06/30 00:08:05;;;;;;;0.10;0.10;;;16.00;99.90;;;;;;4846616;29;20042;-83
2022/06/30 00:10:31;;;;;;;0.32;0.32;;;15.90;99.90;;;;;;4847722;29;20505;-83
2022/06/30 00:12:56;;;;;;;0.63;0.50;;;15.90;99.90;;;;;;4863194;29;20085;-83
2022/06/30 00:15:22;;;;;;;0.20;0.20;;;15.90;99.90;;;;;;4863945;29;20077;-83
2022/06/30 00:17:48;;;;;;;1.35;0.45;;;15.90;99.90;;;;;;4875890;29;20055;-83
2022/06/30 00:20:13;;;;;;;0.10;0.10;;;15.90;99.90;;;;;;4876479;29;20061;-83
2022/06/30 00:22:39;;;;;;;0.20;0.20;;;15.90;99.90;;;;;;4864996;29;20128;-83
2022/06/30 00:25:05;;;;;;;0.45;0.40;;;15.90;99.90;;;;;;4846027;29;20050;-83
2022/06/30 00:27:31;;;;;;;0.17;0.17;;;15.90;99.90;;;;;;4867981;29;20516;-83
2022/06/30 00:29:57;;;;;;;0.15;0.15;;;15.80;99.90;;;;;;4899921;23;20080;-85
2022/06/30 00:32:23;;;;;;;0.10;0.10;;;15.80;99.90;;;;;;4882176;29;20743;-85
2022/06/30 00:34:48;;;;;;;0.00;0.00;;;15.80;99.90;;;;;;4882682;29;20043;-85
2022/06/30 00:37:14;;;;;;;0.10;0.10;;;15.80;99.90;;;;;;4897471;29;20044;-85
2022/06/30 00:39:40;;;;;;;0.32;0.30;;;15.70;99.90;;;;;;4896417;29;20044;-85
2022/06/30 00:42:06;;;;;;;3.65;0.40;;;15.70;99.90;;;;;;4882366;29;20099;-85
2022/06/30 00:44:32;;;;;;;0.25;0.25;;;15.70;99.90;;;;;;4879089;29;20053;-85
2022/06/30 00:46:58;;;;;;;0.30;0.30;;;15.70;99.90;;;;;;4868465;29;20040;-85
2022/06/30 00:49:24;;;;;;;0.10;0.10;;;15.70;99.90;;;;;;4897457;29;20048;-84
2022/06/30 00:51:50;;;;;;;0.40;0.40;;;15.70;99.90;;;;;;4896803;29;20056;-83
2022/06/30 00:54:17;;;;;;;0.20;0.20;;;15.60;99.90;;;;;;4880709;29;20372;-83
2022/06/30 00:56:46;;;;;;;0.00;0.00;;;15.60;99.90;;;;;;4897851;29;20516;-83
2022/06/30 00:59:14;;;;;;;0.20;0.20;;;15.60;99.90;;;;;;4896013;29;20172;-83
2022/06/30 01:01:42;;;;;;;0.10;0.10;;;15.60;99.90;;;;;;4893379;29;20112;-84
2022/06/30 01:04:08;;;;;;;0.73;0.47;;;15.50;99.90;;;;;;4878951;29;20108;-83
2022/06/30 01:06:36;;;;;;;0.20;0.20;;;15.50;99.90;;;;;;4879905;29;20048;-86
2022/06/30 01:09:03;;;;;;;0.05;0.05;;;15.50;99.90;;;;;;4896623;29;20131;-86
2022/06/30 01:14:15;;;;;;;0.20;0.20;;;15.60;99.90;;;;;;4889068;29;20048;-86
2022/06/30 01:16:41;;;;;;;0.20;0.17;;;15.60;99.90;;;;;;4896930;29;20049;-86
2022/06/30 01:19:07;;;;;;;0.15;0.15;;;15.70;99.90;;;;;;4896427;29;20044;-86
2022/06/30 01:21:34;;;;;;;0.30;0.30;;;15.70;99.90;;;;;;4894502;29;20045;-86
2022/06/30 01:23:59;;;;;;;0.20;0.20;;;15.70;99.90;;;;;;4869079;29;20049;-86
2022/06/30 01:26:27;;;;;;;0.20;0.20;;;15.60;99.90;;;;;;4878869;29;20385;-86
2022/06/30 01:28:53;;;;;;;0.10;0.10;;;15.60;99.90;;;;;;4863241;29;20112;-85
2022/06/30 01:31:19;;;;;;;1.40;0.95;;;15.50;99.90;;;;;;4885489;29;20049;-86
2022/06/30 01:33:45;;;;;;;0.20;0.20;;;15.50;99.90;;;;;;4863477;29;20041;-86
2022/06/30 01:36:11;;;;;;;0.40;0.30;;;15.50;99.90;;;;;;4879716;29;20056;-86
2022/06/30 01:38:36;;;;;;;0.40;0.40;;;15.50;99.90;;;;;;4863456;29;20037;-86
2022/06/30 01:41:02;;;;;;;0.10;0.10;;;15.50;99.90;;;;;;4882263;29;20059;-81
2022/06/30 01:43:28;;;;;;;0.30;0.28;;;15.50;99.90;;;;;;4893447;29;20052;-83
2022/06/30 01:45:54;;;;;;;0.10;0.10;;;15.60;99.90;;;;;;4884478;29;20063;-83
2022/06/30 01:48:20;;;;;;;0.52;0.52;;;15.70;99.90;;;;;;4879056;29;20059;-83
2022/06/30 01:50:45;;;;;;;0.15;0.15;;;15.70;99.90;;;;;;4848153;29;20043;-83
2022/06/30 01:53:11;;;;;;;0.30;0.15;;;15.70;99.90;;;;;;4863292;29;20044;-83
2022/06/30 01:55:37;;;;;;;0.10;0.10;;;15.80;99.90;;;;;;4877209;29;20041;-83
2022/06/30 01:58:03;;;;;;;0.30;0.30;;;15.80;99.90;;;;;;4895326;29;20041;-83
2022/06/30 02:00:29;;;;;;;0.32;0.30;;;16.00;99.90;;;;;;4879166;29;20045;-83
2022/06/30 02:02:56;;;;;;;0.22;0.22;;;16.00;99.90;;;;;;4877959;29;20411;-83
2022/06/30 02:05:23;;;;;;;0.10;0.10;;;16.10;99.90;;;;;;4881140;29;20636;-83
2022/06/30 02:07:49;;;;;;;0.40;0.40;;;16.30;99.90;;;;;;4884811;29;20112;-83
2022/06/30 02:10:18;;;;;;;0.98;0.35;;;16.40;99.90;;;;;;4885113;29;20101;-83
2022/06/30 02:12:47;;;;;;;0.30;0.30;;;16.40;99.90;;;;;;4898676;29;20475;-83
2022/06/30 02:15:18;;;;;;;0.10;0.10;;;16.40;99.90;;;;;;4889210;29;20044;-83
2022/06/30 02:17:45;;;;;;;0.43;0.43;;;16.40;99.90;;;;;;4896208;29;20068;-83
2022/06/30 02:20:12;;;;;;;0.00;0.00;;;16.40;99.90;;;;;;4900133;29;20043;-83
2022/06/30 02:22:39;;;;;;;0.28;0.28;;;16.50;99.90;;;;;;4900378;29;20496;-83
2022/06/30 02:25:06;;;;;;;0.88;0.52;;;16.50;99.90;;;;;;4884487;29;20068;-83
2022/06/30 02:27:32;;;;;;;0.25;0.20;;;16.50;99.90;;;;;;4900133;29;20052;-83
2022/06/30 02:29:58;;;;;;;0.28;0.28;;;16.50;99.90;;;;;;4900616;29;20048;-84
2022/06/30 02:32:24;;;;;;;0.20;0.20;;;16.60;99.90;;;;;;4900950;29;20045;-83
2022/06/30 02:34:51;;;;;;;0.40;0.40;;;16.50;99.90;;;;;;4884723;29;20455;-84
2022/06/30 02:37:18;;;;;;;0.40;0.38;;;16.50;99.90;;;;;;4900522;29;20044;-83
2022/06/30 02:39:43;;;;;;;0.32;0.32;;;16.40;99.90;;;;;;4900634;29;20055;-83
2022/06/30 02:42:09;;;;;;;0.05;0.05;;;16.40;99.90;;;;;;4901109;29;20044;-83
2022/06/30 02:44:35;;;;;;;0.10;0.10;;;16.40;99.90;;;;;;4882100;29;20452;-83
2022/06/30 02:47:02;;;;;;;0.13;0.13;;;16.40;99.90;;;;;;4900458;29;20055;-84
2022/06/30 02:49:27;;;;;;;0.13;0.13;;;16.30;99.90;;;;;;4884779;29;20123;-84
2022/06/30 02:51:53;;;;;;;0.10;0.10;;;16.20;99.90;;;;;;4900543;29;20127;-84
2022/06/30 02:54:19;;;;;;;0.30;0.25;;;16.10;99.90;;;;;;4899884;29;20037;-83
2022/06/30 02:56:45;;;;;;;0.10;0.10;;;16.10;99.90;;;;;;4884536;29;20100;-83
2022/06/30 02:59:11;;;;;;;0.05;0.05;;;16.10;99.90;;;;;;4915793;29;20046;-84
2022/06/30 03:01:37;;;;;;;1.35;0.32;;;16.00;99.90;;;;;;4889168;29;20428;-83
2022/06/30 03:04:03;;;;;;;0.25;0.25;;;16.00;99.90;;;;;;4865761;29;20056;-84
2022/06/30 03:06:30;;;;;;;0.32;0.32;;;15.90;99.90;;;;;;4898202;29;20051;-83
2022/06/30 03:08:57;;;;;;;1.38;1.27;;;15.90;99.90;;;;;;4884531;29;20158;-84
2022/06/30 03:11:23;;;;;;;0.10;0.10;;;15.90;99.90;;;;;;4899506;29;20041;-83
2022/06/30 03:13:49;;;;;;;0.20;0.20;;;15.90;99.90;;;;;;4896759;29;20055;-83
2022/06/30 03:16:15;;;;;;;0.30;0.30;;;15.90;99.90;;;;;;4900176;29;20052;-84
2022/06/30 03:18:41;;;;;;;0.30;0.30;;;15.90;99.90;;;;;;4899860;29;20361;-84
2022/06/30 03:21:07;;;;;;;0.10;0.10;;;15.90;99.90;;;;;;4891625;29;20072;-83
2022/06/30 03:23:34;;;;;;;0.28;0.28;;;15.90;99.90;;;;;;4883714;29;20120;-83
2022/06/30 03:26:00;;;;;;;0.10;0.10;;;15.90;99.90;;;;;;4899351;29;20080;-83
2022/06/30 03:28:25;;;;;;;0.10;0.10;;;15.80;99.90;;;;;;4880117;29;20041;-83
2022/06/30 03:30:51;;;;;;;0.38;0.13;;;15.70;99.90;;;;;;4899361;29;20120;-83
2022/06/30 03:33:18;;;;;;;0.28;0.20;;;15.70;99.90;;;;;;4875163;29;20047;-83
2022/06/30 03:35:45;;;;;;;0.30;0.30;;;15.70;99.90;;;;;;4898170;29;20048;-83
2022/06/30 03:38:12;;;;;;;0.95;0.35;;;15.70;99.90;;;;;;4899149;29;20384;-86
2022/06/30 03:40:38;;;;;;;1.27;0.40;;;15.70;99.90;;;;;;4899256;29;20072;-86
2022/06/30 03:43:04;;;;;;;0.13;0.10;;;15.70;99.90;;;;;;4899020;29;20072;-86
2022/06/30 03:45:29;;;;;;;0.10;0.10;;;15.60;99.90;;;;;;4899425;29;20044;-87
2022/06/30 03:47:55;;;;;;;0.80;0.35;;;15.70;99.90;;;;;;4883209;29;20121;-87
2022/06/30 03:50:21;;;;;;;0.30;0.30;;;15.60;99.90;;;;;;4893010;29;20480;-86
2022/06/30 03:52:47;;;;;;;0.10;0.10;;;15.70;99.90;;;;;;4865213;29;20045;-84
2022/06/30 03:55:13;;;;;;;0.75;0.35;;;15.70;99.90;;;;;;4895040;29;20041;-83
2022/06/30 03:57:39;;;;;;;0.20;0.10;;;15.80;99.90;;;;;;4883745;29;20387;-83
2022/06/30 04:00:05;;;;;;;0.60;0.40;;;15.80;99.90;;;;;;4897954;29;20045;-83
2022/06/30 04:02:32;;;;;;;0.43;0.35;;;15.90;99.90;;;;;;4894016;29;20086;-83
2022/06/30 04:04:58;;;;;;;0.60;0.60;;;16.00;99.90;;;;;;4898009;29;20124;-84
2022/06/30 04:07:24;;;;;;;0.05;0.05;;;16.10;99.90;;;;;;4898566;29;20052;-83
2022/06/30 04:09:50;;;;;;;0.10;0.10;;;16.10;99.90;;;;;;4898445;29;20040;-86
2022/06/30 04:12:15;;;;;;;0.13;0.13;;;16.30;99.90;;;;;;4888783;29;20037;-86
2022/06/30 04:14:41;;;;;;;0.00;0.00;;;16.30;99.90;;;;;;4896142;29;20136;-87
2022/06/30 04:17:07;;;;;;;0.45;0.45;;;16.30;99.90;;;;;;4898773;29;20041;-86
2022/06/30 04:19:33;;;;;;;0.70;0.50;;;16.40;99.90;;;;;;4898350;29;20188;-86
2022/06/30 04:21:59;;;;;;;0.60;0.50;;;16.50;99.90;;;;;;4883118;29;20131;-86
2022/06/30 04:24:25;;;;;;;0.35;0.35;;;16.60;99.90;;;;;;4882661;29;20040;-86
2022/06/30 04:26:51;;;;;;;0.10;0.10;;;16.70;99.90;;;;;;4892197;29;20048;-86
2022/06/30 04:29:16;;;;;;;0.20;0.20;;;16.70;99.90;;;;;;4882462;29;20088;-86
2022/06/30 04:34:26;;;;;;;0.10;0.10;;;16.80;99.90;;;;;;4898307;29;20056;-86
2022/06/30 04:36:52;;;;;;;0.20;0.20;;;16.90;99.90;;;;;;4879996;29;20045;-86
2022/06/30 04:39:17;;;;;;;0.10;0.10;;;17.00;99.90;;;;;;4898521;29;20119;-86
2022/06/30 04:41:43;;;;;;;0.00;0.00;;;17.10;99.90;;;;;;4882538;29;20379;-86
2022/06/30 04:44:09;;;;;;;0.38;0.38;;;17.10;99.90;;;;;;4898593;29;20048;-83
2022/06/30 04:46:35;;;;;;;0.10;0.10;;;17.20;99.90;;;;;;4881972;29;20049;-83
2022/06/30 04:49:00;;;;;;;2.05;0.35;;;17.30;99.90;;;;;;4898135;29;20036;-83
2022/06/30 04:51:27;;;;;;;0.43;0.35;;;17.40;99.90;;;;;;4897999;29;20045;-83
2022/06/30 04:53:52;;;;;;;0.10;0.10;;;17.50;99.90;;;;;;4882776;29;20051;-83
2022/06/30 04:56:18;;;;;;;0.32;0.32;;;17.50;99.90;;;;;;4898212;29;20048;-83
2022/06/30 04:58:44;;;;;;;0.10;0.10;;;17.70;99.90;;;;;;4870230;29;20041;-83
2022/06/30 05:01:11;;;;;;;0.43;0.43;;;17.80;99.90;;;;;;4881655;29;20068;-83
2022/06/30 05:03:38;;;;;;;0.65;0.50;;;17.80;99.90;;;;;;4879480;29;20129;-83
2022/06/30 05:06:07;;;;;;;0.20;0.20;;;18.00;99.90;;;;;;4880880;29;20539;-83
2022/06/30 05:08:34;;;;;;;0.30;0.30;;;18.00;99.90;;;;;;4893244;29;20041;-83
2022/06/30 05:11:00;;;;;;;0.10;0.10;;;18.10;99.90;;;;;;4897196;29;20048;-83
2022/06/30 05:13:27;;;;;;;0.75;0.52;;;18.20;99.90;;;;;;4898451;29;20049;-83
2022/06/30 05:15:53;;;;;;;0.88;0.82;;;18.30;99.90;;;;;;4896942;29;20384;-84
2022/06/30 05:18:19;;;;;;;0.30;0.30;;;18.40;99.90;;;;;;4893184;29;20048;-85
2022/06/30 05:20:45;;;;;;;0.20;0.20;;;18.50;99.90;;;;;;4895654;29;20475;-85
2022/06/30 05:23:11;;;;;;;0.30;0.30;;;18.50;99.90;;;;;;4881233;29;20041;-84
2022/06/30 05:28:21;;;;;;;0.17;0.17;;;18.80;99.90;;;;;;4879372;29;20079;-85
2022/06/30 05:30:48;;;;;;;0.20;0.20;;;20.20;99.90;;;;;;4893352;29;20052;-85
2022/06/30 05:33:14;;;;;;;0.40;0.38;;;21.00;99.90;;;;;;4905829;29;20477;-86
2022/06/30 05:35:42;;;;;;;0.95;0.70;;;22.20;99.90;;;;;;4897376;29;20053;-87
2022/06/30 05:38:08;;;;;;;0.00;0.00;;;22.30;99.90;;;;;;4881640;29;20045;-87
2022/06/30 05:40:33;;;;;;;0.30;0.30;;;23.60;99.90;;;;;;4881739;29;20047;-87
2022/06/30 05:42:59;;;;;;;0.30;0.30;;;23.60;99.90;;;;;;4893970;29;20080;-87
2022/06/30 05:45:25;;;;;;;0.40;0.40;;;24.00;99.90;;;;;;4884604;29;20123;-87
2022/06/30 05:47:53;;;;;;;0.40;0.40;;;24.20;99.90;;;;;;4897279;29;20055;-86
2022/06/30 05:50:20;;;;;;;0.20;0.20;;;24.40;99.90;;;;;;4881927;29;20045;-84
2022/06/30 05:52:47;;;;;;;0.05;0.05;;;24.60;99.90;;;;;;4878994;29;20052;-85
2022/06/30 05:55:13;;;;;;;0.52;0.52;;;25.10;99.90;;;;;;4848980;29;20470;-85
2022/06/30 05:57:56;;;;;;;0.20;0.20;;;25.50;99.90;;;;;;4896881;29;20048;-85
2022/06/30 06:00:24;;;;;;;0.28;0.28;;;25.90;99.90;;;;;;4895640;29;20494;-85
2022/06/30 06:02:50;;;;;;;0.30;0.30;;;26.10;99.90;;;;;;4895488;29;20049;-85
2022/06/30 06:05:16;;;;;;;0.05;0.05;;;26.30;99.60;;;;;;4897552;29;20135;-85
2022/06/30 06:07:43;;;;;;;0.80;0.73;;;26.50;99.70;;;;;;4865940;29;20052;-84
2022/06/30 06:10:09;;;;;;;0.52;0.43;;;26.60;99.90;;;;;;4879615;29;20055;-84
2022/06/30 06:12:35;;;;;;;0.30;0.30;;;27.00;99.40;;;;;;4896711;29;20047;-84
2022/06/30 06:15:01;;;;;;;0.17;0.17;;;27.30;98.80;;;;;;4885744;29;20037;-84
2022/06/30 06:17:29;;;;;;;0.28;0.28;;;27.60;98.40;;;;;;4879829;29;20104;-84
2022/06/30 06:19:54;;;;;;;0.60;0.60;;;27.90;97.80;;;;;;4879135;29;20044;-84
2022/06/30 06:22:20;;;;;;;0.43;0.43;;;28.10;97.50;;;;;;4877821;29;20045;-84
2022/06/30 06:24:46;;;;;;;0.65;0.55;;;28.10;98.00;;;;;;4878299;29;20053;-84
2022/06/30 06:27:11;;;;;;;0.65;0.35;;;28.10;97.10;;;;;;4883279;29;20044;-84
2022/06/30 06:29:37;;;;;;;0.70;0.70;;;28.30;97.40;;;;;;4916413;23;20053;-84
2022/06/30 06:32:03;;;;;;;0.20;0.20;;;28.60;96.50;;;;;;4900510;29;20059;-84
2022/06/30 06:34:29;;;;;;;0.40;0.40;;;28.70;96.40;;;;;;4878971;29;20380;-84
2022/06/30 06:36:54;;;;;;;0.30;0.30;;;28.90;95.80;;;;;;4909946;29;20049;-84
2022/06/30 06:39:20;;;;;;;0.43;0.40;;;28.90;95.80;;;;;;4895866;29;20045;-87
2022/06/30 06:41:46;;;;;;;0.20;0.20;;;29.00;96.20;;;;;;4897485;29;20547;-86
2022/06/30 06:44:11;;;;;;;2.55;0.73;;;29.20;95.40;;;;;;4880863;29;20104;-87
2022/06/30 06:46:38;;;;;;;0.20;0.20;;;29.50;95.00;;;;;;4895992;29;20564;-87
2022/06/30 06:49:06;;;;;;;0.32;0.32;;;29.60;95.40;;;;;;4879285;29;20132;-87
2022/06/30 06:51:33;;;;;;;0.60;0.60;;;29.80;94.80;;;;;;4880579;29;20047;-87
2022/06/30 06:53:59;;;;;;;0.50;0.50;;;29.80;94.70;;;;;;4884356;29;20470;-87
2022/06/30 06:56:25;;;;;;;0.50;0.40;;;29.80;94.50;;;;;;4900423;29;20131;-85
2022/06/30 06:58:50;;;;;;;0.43;0.43;;;29.90;94.20;;;;;;4884283;29;20041;-85
2022/06/30 07:01:16;;;;;;;0.20;0.20;;;30.40;94.00;;;;;;4891961;29;20112;-85
2022/06/30 07:03:42;;;;;;;0.22;0.22;;;30.40;94.30;;;;;;4892903;29;20131;-85
2022/06/30 07:06:08;;;;;;;0.38;0.38;;;30.60;92.90;;;;;;4900075;29;20087;-85
2022/06/30 07:08:34;;;;;;;0.43;0.43;;;30.60;93.80;;;;;;4900136;29;20159;-85
2022/06/30 07:11:00;;;;;;;0.88;0.85;;;30.70;93.40;;;;;;4900218;29;20036;-85
2022/06/30 07:13:27;;;;;;;0.40;0.40;;;30.80;93.40;;;;;;4899101;29;20067;-86
2022/06/30 07:15:53;;;;;;;0.30;0.30;;;30.80;93.50;;;;;;4899813;29;20052;-86
2022/06/30 07:18:19;;;;;;;0.45;0.45;;;31.00;93.30;;;;;;4900581;29;20048;-86
2022/06/30 07:20:45;;;;;;;0.20;0.20;;;31.20;91.90;;;;;;4880968;29;20045;-87
2022/06/30 07:23:11;;;;;;;0.40;0.40;;;31.20;92.50;;;;;;4867577;29;20052;-86
2022/06/30 07:25:36;;;;;;;0.28;0.28;;;31.30;92.30;;;;;;4883672;29;20045;-86
2022/06/30 07:28:03;;;;;;;0.20;0.20;;;31.70;92.30;;;;;;4899292;29;20514;-86
2022/06/30 07:30:29;;;;;;;0.30;0.30;;;31.90;91.70;;;;;;4869662;29;20391;-87
2022/06/30 07:32:55;;;;;;;6.25;1.02;;;32.00;91.40;;;;;;4882599;29;20123;-87
2022/06/30 07:35:21;;;;;;;0.45;0.43;;;32.50;91.80;;;;;;4895564;29;20045;-87
2022/06/30 07:37:46;;;;;;;0.30;0.30;;;32.70;91.10;;;;;;4899071;29;20048;-87
2022/06/30 07:40:14;;;;;;;0.15;0.15;;;32.90;90.80;;;;;;4899265;29;20704;-88
2022/06/30 07:42:40;;;;;;;1.05;0.63;;;33.30;90.00;;;;;;4879695;29;20438;-88
2022/06/30 07:45:07;;;;;;;0.52;0.52;;;33.50;89.90;;;;;;4892445;29;20382;-87
2022/06/30 07:47:32;;;;;;;0.40;0.40;;;33.40;88.70;;;;;;4880689;29;20131;-86
2022/06/30 07:49:58;;;;;;;0.75;0.75;;;33.10;89.50;;;;;;4867453;29;20524;-86
2022/06/30 07:52:24;;;;;;;0.20;0.20;;;33.00;90.00;;;;;;4899458;29;20448;-86
2022/06/30 07:54:51;;;;;;;0.45;0.28;;;32.90;88.50;;;;;;4883401;29;20079;-86
2022/06/30 07:57:20;;;;;;;0.32;0.32;;;33.00;89.30;;;;;;4898405;29;20055;-86
2022/06/30 07:59:46;;;;;;;0.25;0.25;;;33.20;89.90;;;;;;4898307;29;20525;-88
2022/06/30 08:02:12;;;;;;;0.57;0.57;;;33.30;89.30;;;;;;4897179;29;20127;-87
2022/06/30 08:04:39;;;;;;;0.25;0.25;;;33.80;90.10;;;;;;4904028;29;20043;-87
2022/06/30 08:07:04;;;;;;;0.30;0.30;;;34.40;87.80;;;;;;4902339;29;20075;-86
2022/06/30 08:09:31;;;;;;;0.47;0.47;;;34.50;86.20;;;;;;4901099;29;20483;-87
2022/06/30 08:11:57;;;;;;;0.40;0.40;;;34.40;86.50;;;;;;4882901;29;20055;-86
2022/06/30 08:14:23;;;;;;;2.17;0.93;;;34.40;85.60;;;;;;4898636;29;20074;-87
2022/06/30 08:16:49;;;;;;;0.88;0.65;;;34.70;88.80;;;;;;4883048;29;20048;-87
2022/06/30 08:19:19;;;;;;;0.30;0.30;;;35.10;84.80;;;;;;4883020;29;20052;-86
2022/06/30 08:21:48;;;;;;;0.45;0.45;;;35.50;85.80;;;;;;4898609;29;20623;-86
2022/06/30 08:24:14;;;;;;;0.28;0.28;;;35.80;83.40;;;;;;4898464;29;20623;-87
2022/06/30 08:26:40;;;;;;;0.70;0.68;;;36.00;83.60;;;;;;4882795;29;20041;-87
2022/06/30 08:29:08;;;;;;;1.10;0.57;;;36.20;83.00;;;;;;4882646;29;20415;-87
2022/06/30 08:31:35;;;;;;;0.40;0.40;;;36.40;82.20;;;;;;4898510;29;20040;-86
2022/06/30 08:34:02;;;;;;;0.35;0.35;;;36.50;83.00;;;;;;4898332;29;20055;-87
2022/06/30 08:36:28;;;;;;;0.68;0.68;;;36.50;80.30;;;;;;4882653;29;20447;-86
2022/06/30 08:38:53;;;;;;;0.65;0.60;;;36.30;80.60;;;;;;4898355;29;20076;-85
2022/06/30 08:44:05;;;;;;;0.63;0.63;;;36.50;79.90;;;;;;4910943;29;20064;-84
2022/06/30 08:46:33;;;;;;;0.30;0.30;;;36.70;80.20;;;;;;4910690;29;20124;-84
2022/06/30 08:48:59;;;;;;;1.42;0.90;;;37.10;80.80;;;;;;4881300;29;20045;-84
2022/06/30 08:51:28;;;;;;;0.63;0.63;;;37.50;78.90;;;;;;4880399;29;20488;-85
2022/06/30 08:53:57;;;;;;;0.50;0.40;;;37.80;78.60;;;;;;4868542;29;20132;-86
2022/06/30 08:56:23;;;;;;;0.40;0.40;;;38.20;77.80;;;;;;4895805;29;20514;-86
2022/06/30 08:58:51;;;;;;;0.50;0.50;;;38.10;77.70;;;;;;4897645;29;20049;-86
2022/06/30 09:01:20;;;;;;;2.85;1.02;;;38.10;77.00;;;;;;4896629;29;20092;-87
2022/06/30 09:03:46;;;;;;;0.70;0.55;;;38.50;77.00;;;;;;4897536;29;20044;-86
2022/06/30 09:06:13;;;;;;;1.45;1.15;;;38.60;74.80;;;;;;4897538;29;20112;-86
2022/06/30 09:08:38;;;;;;;0.47;0.47;;;38.60;76.10;;;;;;4897251;29;20130;-86
2022/06/30 09:11:04;;;;;;;0.25;0.25;;;38.50;76.70;;;;;;4897724;29;20144;-87
2022/06/30 09:13:45;;;;;;;1.00;0.82;;;38.60;76.80;;;;;;4896563;29;20396;-88
2022/06/30 09:16:12;;;;;;;0.50;0.32;;;38.50;75.30;;;;;;4881794;29;20037;-87
2022/06/30 09:18:38;;;;;;;0.20;0.20;;;38.60;74.30;;;;;;4895352;29;20039;-87
2022/06/30 09:21:16;;;;;;;0.28;0.28;;;38.90;75.40;;;;;;4894234;29;20520;-87
2022/06/30 09:23:44;;;;;;;0.80;0.65;;;38.80;74.30;;;;;;4864152;29;20055;-88
2022/06/30 09:26:19;;;;;;;1.55;0.57;;;38.30;72.70;;;;;;4863266;29;20041;-87
2022/06/30 09:28:46;;;;;;;0.80;0.80;;;38.50;72.00;;;;;;4894671;29;20052;-87
2022/06/30 09:31:14;;;;;;;0.50;0.50;;;38.50;71.60;;;;;;4893325;29;20076;-87
2022/06/30 09:33:41;;;;;;;0.55;0.40;;;38.60;71.10;;;;;;4874364;29;20385;-87
2022/06/30 09:36:22;;;;;;;0.43;0.43;;;38.90;71.50;;;;;;4897746;29;20412;-88
2022/06/30 09:39:05;;;;;;;0.30;0.30;;;38.80;71.20;;;;;;4897593;29;20099;-88
2022/06/30 09:41:34;;;;;;;2.28;0.70;;;38.50;71.00;;;;;;4863979;29;20045;-88
2022/06/30 09:44:01;;;;;;;0.45;0.45;;;38.70;71.40;;;;;;4896760;29;20052;-87
2022/06/30 09:46:26;;;;;;;0.65;0.65;;;38.80;71.30;;;;;;4881872;29;20048;-86
2022/06/30 09:48:52;;;;;;;0.63;0.63;;;39.10;71.80;;;;;;4897428;29;20045;-86
2022/06/30 09:51:18;;;;;;;0.52;0.50;;;38.90;70.20;;;;;;4881936;29;20095;-87
2022/06/30 09:54:10;;;;;;;2.13;1.92;;;39.30;71.20;;;;;;4896728;29;20044;-87
2022/06/30 09:56:36;;;;;;;0.57;0.57;;;39.50;70.60;;;;;;4881926;29;20445;-87
2022/06/30 09:59:06;;;;;;;1.30;0.93;;;39.30;71.90;;;;;;4882184;29;20067;-87
2022/06/30 10:01:52;;;;;;;0.75;0.75;;;39.50;71.30;;;;;;4896089;29;20116;-87
2022/06/30 10:04:18;;;;;;;0.35;0.35;;;39.80;70.60;;;;;;4897085;29;20063;-87
2022/06/30 10:06:45;;;;;;;0.73;0.73;;;38.90;70.80;;;;;;4881630;29;20492;-87
2022/06/30 10:09:19;;;;;;;1.00;0.73;;;39.00;71.00;;;;;;4897062;29;20045;-87
2022/06/30 10:11:50;;;;;;;1.27;1.17;;;39.10;69.00;;;;;;4897002;29;20048;-86
2022/06/30 10:14:17;;;;;;;0.40;0.40;;;39.20;69.90;;;;;;4880860;29;20085;-86
2022/06/30 10:16:43;;;;;;;1.40;1.30;;;39.30;67.70;;;;;;4883486;29;20036;-87
2022/06/30 10:19:10;;;;;;;2.22;0.77;;;39.30;67.70;;;;;;4897035;29;20127;-87
2022/06/30 10:21:38;;;;;;;0.30;0.30;;;38.90;67.50;;;;;;4881524;29;20049;-87
2022/06/30 10:24:08;;;;;;;0.85;0.85;;;38.90;69.20;;;;;;4880881;29;20041;-87
2022/06/30 10:29:19;;;;;;;0.98;0.98;;;39.40;69.00;;;;;;4900301;29;20411;-87
2022/06/30 10:32:04;;;;;;;1.02;1.00;;;39.30;68.60;;;;;;4899225;29;20131;-87
2022/06/30 10:34:36;;;;;;;0.20;0.20;;;39.50;68.40;;;;;;4895991;29;20514;-86
2022/06/30 10:37:24;;;;;;;0.98;0.93;;;39.50;68.50;;;;;;4890848;29;20040;-86
2022/06/30 10:39:52;;;;;;;1.45;1.17;;;39.80;68.00;;;;;;4884772;29;20380;-86
2022/06/30 10:42:55;;;;;;;0.50;0.50;;;39.40;69.20;;;;;;4897310;29;20047;-85
2022/06/30 10:45:26;;;;;;;0.32;0.32;;;39.60;68.60;;;;;;4885066;29;20136;-85
2022/06/30 10:47:55;;;;;;;0.50;0.50;;;39.70;67.50;;;;;;4884822;29;20492;-86
2022/06/30 10:50:37;;;;;;;0.55;0.55;;;39.70;67.00;;;;;;4900226;29;20064;-87
2022/06/30 10:53:08;;;;;;;0.70;0.70;;;39.20;65.70;;;;;;4899788;29;20503;-87
2022/06/30 10:55:52;;;;;;;1.15;0.73;;;39.00;66.30;;;;;;4900217;29;20048;-87
2022/06/30 10:58:19;;;;;;;0.77;0.77;;;39.00;67.10;;;;;;4900509;29;20109;-86
2022/06/30 11:00:54;;;;;;;0.40;0.40;;;38.90;66.90;;;;;;4899094;29;20095;-86
2022/06/30 11:03:33;;;;;;;0.95;0.60;;;38.90;66.90;;;;;;4865859;29;20052;-86
2022/06/30 11:06:06;;;;;;;0.28;0.28;;;38.80;66.40;;;;;;4881501;29;20056;-86
2022/06/30 11:08:50;;;;;;;0.73;0.57;;;38.80;66.20;;;;;;4879400;29;20077;-86
2022/06/30 11:11:22;;;;;;;0.43;0.30;;;38.70;66.10;;;;;;4890263;29;20041;-86
2022/06/30 11:14:04;;;;;;;0.90;0.90;;;38.50;66.80;;;;;;4884115;29;20044;-85
2022/06/30 11:16:34;;;;;;;0.30;0.30;;;38.60;68.20;;;;;;4898560;29;20135;-86
2022/06/30 11:19:01;;;;;;;0.52;0.52;;;38.80;67.80;;;;;;4883746;29;20103;-86
2022/06/30 11:21:31;;;;;;;0.80;0.47;;;38.70;67.30;;;;;;4899323;29;20052;-86
2022/06/30 11:24:00;;;;;;;0.40;0.40;;;38.40;68.60;;;;;;4900111;29;20131;-86
2022/06/30 11:29:16;;;;;;;;;;;38.20;65.40;;;;;;4899812;29;20132;-85
2022/06/30 11:31:42;;;;;;;0.43;0.43;;;37.80;65.70;;;;;;4896270;29;19920;-86
2022/06/30 11:34:14;;;;;;;0.25;0.25;;;37.40;66.10;;;;;;4880708;29;20433;-86
2022/06/30 11:36:43;;;;;;;0.50;0.50;;;37.20;66.30;;;;;;4865214;29;20096;-86
2022/06/30 11:39:20;;;;;;;0.80;0.80;;;37.10;66.60;;;;;;4880629;29;20044;-86
2022/06/30 11:41:59;;;;;;;0.30;0.30;;;37.30;67.10;;;;;;4870947;29;20147;-85
2022/06/30 11:44:38;;;;;;;0.70;0.70;;;37.50;66.70;;;;;;4899513;29;20054;-85
2022/06/30 11:47:04;;;;;;;0.45;0.45;;;37.20;67.20;;;;;;4899122;29;20518;-85
2022/06/30 11:49:53;;;;;;;0.50;0.43;;;36.90;67.50;;;;;;4900018;29;20411;-86
2022/06/30 11:52:31;;;;;;;0.45;0.45;;;36.50;68.60;;;;;;4898987;29;20376;-85
2022/06/30 11:54:59;;;;;;;1.52;0.32;;;36.30;68.90;;;;;;4899287;29;20044;-86
2022/06/30 11:57:33;;;;;;;0.35;0.35;;;35.90;69.30;;;;;;4899325;29;20131;-85
2022/06/30 12:00:06;;;;;;;0.40;0.40;;;35.40;68.70;;;;;;4896734;29;20387;-85
2022/06/30 12:02:33;;;;;;;0.25;0.25;;;35.20;71.10;;;;;;4881926;29;20076;-85
2022/06/30 12:05:01;;;;;;;0.40;0.40;;;35.40;69.30;;;;;;4883375;29;20476;-84
2022/06/30 12:07:28;;;;;;;0.55;0.55;;;35.40;69.30;;;;;;4899018;29;20048;-85
2022/06/30 12:09:55;;;;;;;0.22;0.22;;;35.50;67.50;;;;;;4883223;29;20523;-86
2022/06/30 12:12:26;;;;;;;0.30;0.30;;;35.50;67.50;;;;;;4883657;29;20092;-85
2022/06/30 12:14:59;;;;;;;0.40;0.40;;;35.50;67.80;;;;;;4894411;29;20033;-85
2022/06/30 12:17:33;;;;;;;0.65;0.65;;;35.20;67.60;;;;;;4898736;29;20068;-85
2022/06/30 12:20:00;;;;;;;1.63;0.83;;;35.10;68.40;;;;;;4898895;29;20407;-85
2022/06/30 12:22:26;;;;;;;0.63;0.63;;;35.10;69.00;;;;;;4898342;29;20095;-84
2022/06/30 12:24:52;;;;;;;3.00;0.50;;;35.00;69.30;;;;;;4882961;29;20143;-86
2022/06/30 12:27:27;;;;;;;0.40;0.40;;;34.70;70.10;;;;;;4897908;29;20411;-85
2022/06/30 12:30:01;;;;;;;1.00;0.87;;;34.60;71.60;;;;;;4902781;23;20061;-86
2022/06/30 12:32:28;;;;;;;0.65;0.65;;;34.30;70.90;;;;;;4879364;29;20057;-85
2022/06/30 12:34:57;;;;;;;0.45;0.45;;;34.10;71.40;;;;;;4863723;29;20045;-86
2022/06/30 12:37:43;;;;;;;0.60;0.60;;;34.00;72.00;;;;;;4861116;29;20049;-86
2022/06/30 12:40:13;;;;;;;;;;;33.90;72.10;;;;;;4871797;29;20055;-86
2022/06/30 12:42:39;;;;;;;10.75;0.85;;;34.00;71.90;;;;;;4879784;29;19926;-85
2022/06/30 12:45:06;;;;;;;0.30;0.30;;;34.00;71.80;;;;;;4879471;29;20045;-85
2022/06/30 12:47:31;;;;;;;0.40;0.40;;;34.20;71.30;;;;;;4879487;29;20041;-85
2022/06/30 12:50:17;;;;;;;0.20;0.20;;;34.60;69.50;;;;;;4876693;29;20045;-85
2022/06/30 12:52:43;;;;;;;0.20;0.20;;;34.50;68.50;;;;;;4879415;29;20136;-85
2022/06/30 12:55:08;;;;;;;0.30;0.30;;;34.30;69.80;;;;;;4864083;29;20076;-85
2022/06/30 12:57:36;;;;;;;0.38;0.38;;;33.90;70.00;;;;;;4879494;29;20053;-85
2022/06/30 13:00:04;;;;;;;0.30;0.30;;;33.70;70.00;;;;;;4879099;29;20053;-85
2022/06/30 13:02:39;;;;;;;0.28;0.28;;;33.70;70.70;;;;;;4857600;29;20048;-84
2022/06/30 13:05:10;;;;;;;0.32;0.32;;;33.50;69.50;;;;;;4878891;29;20045;-85
2022/06/30 13:07:36;;;;;;;0.45;0.45;;;33.30;70.30;;;;;;4879074;29;20045;-86